createdAt,value
2019-05-21T00:02:08.829Z,68.83
2019-05-21T00:04:37.160Z,67.17
2019-05-21T00:07:05.464Z,74.22
2019-05-21T00:09:33.766Z,67.67
2019-05-21T00:14:48.691Z,74.87
2019-05-21T00:17:17.023Z,73.00
2019-05-21T00:19:45.427Z,70.45
2019-05-21T00:22:13.750Z,66.95
2019-05-21T00:24:42.125Z,71.47
2019-05-21T00:27:10.454Z,77.45
2019-05-21T00:30:15.499Z,70.85
2019-05-21T00:33:20.799Z,65.47
2019-05-21T00:36:27.547Z,64.47
2019-05-21T00:39:32.799Z,63.10
2019-05-21T00:42:01.788Z,61.53
2019-05-21T00:44:39.623Z,68.65
2019-05-21T00:47:09.258Z,63.80
2019-05-21T00:49:37.571Z,54.55
2019-05-21T00:52:08.694Z,59.60
2019-05-21T00:54:36.596Z,54.83
2019-05-21T00:57:05.032Z,53.33
2019-05-21T00:59:33.359Z,51.28
2019-05-21T01:02:01.676Z,49.98
2019-05-21T01:04:30.039Z,48.30
2019-05-21T01:06:58.347Z,45.77
2019-05-21T01:09:26.714Z,49.53
2019-05-21T01:11:55.374Z,46.65
2019-05-21T01:14:23.669Z,48.05
2019-05-21T01:16:51.986Z,39.95
2019-05-21T01:19:20.291Z,40.95
2019-05-21T01:21:48.586Z,36.25
2019-05-21T01:24:17.034Z,41.30
2019-05-21T01:26:45.330Z,37.30
2019-05-21T01:29:13.649Z,39.60
2019-05-21T01:31:42.217Z,35.00
2019-05-21T01:34:11.565Z,39.80
2019-05-21T01:36:40.012Z,30.72
2019-05-21T01:39:08.369Z,31.30
2019-05-21T01:41:36.675Z,34.10
2019-05-21T01:44:05.050Z,29.63
2019-05-21T01:46:33.347Z,31.00
2019-05-21T01:49:01.652Z,29.95
2019-05-21T01:51:29.978Z,29.02
2019-05-21T01:53:58.288Z,32.00
2019-05-21T01:56:26.615Z,29.80
2019-05-21T01:58:54.975Z,29.40
2019-05-21T02:01:23.273Z,29.90
2019-05-21T02:03:51.608Z,28.50
2019-05-21T02:06:19.950Z,28.40
2019-05-21T02:08:48.589Z,31.77
2019-05-21T02:11:16.888Z,35.60
2019-05-21T02:13:45.195Z,31.40
2019-05-21T02:16:13.608Z,34.60
2019-05-21T02:18:42.022Z,33.80
2019-05-21T02:21:10.789Z,36.33
2019-05-21T02:23:39.097Z,33.98
2019-05-21T02:26:07.429Z,34.10
2019-05-21T02:28:35.725Z,35.92
2019-05-21T02:31:04.189Z,40.67
2019-05-21T02:33:32.507Z,41.70
2019-05-21T02:36:00.822Z,42.10
2019-05-21T02:38:29.429Z,44.67
2019-05-21T02:40:57.738Z,48.87
2019-05-21T02:43:26.063Z,49.13
2019-05-21T02:45:54.358Z,53.10
2019-05-21T02:48:22.952Z,55.10
2019-05-21T02:50:51.344Z,58.13
2019-05-21T02:53:19.663Z,53.30
2019-05-21T02:55:48.293Z,58.20
2019-05-21T02:58:16.584Z,60.17
2019-05-21T03:01:01.742Z,64.20
2019-05-21T03:03:31.785Z,61.75
2019-05-21T03:06:13.212Z,66.40
2019-05-21T03:08:30.098Z,65.28
2019-05-21T03:10:58.764Z,67.10
2019-05-21T03:13:27.051Z,66.30
2019-05-21T03:15:55.381Z,70.10
2019-05-21T03:18:23.704Z,69.03
2019-05-21T03:20:52.022Z,69.93
2019-05-21T03:23:20.305Z,69.70
2019-05-21T03:25:48.630Z,73.80
2019-05-21T03:28:17.183Z,68.33
2019-05-21T03:30:45.527Z,66.65
2019-05-21T03:33:14.381Z,66.33
2019-05-21T03:35:42.722Z,59.88
2019-05-21T03:38:11.032Z,60.85
2019-05-21T03:40:39.357Z,62.53
2019-05-21T03:43:07.662Z,55.52
2019-05-21T03:45:36.057Z,63.33
2019-05-21T03:48:04.752Z,59.43
2019-05-21T03:50:33.063Z,60.17
2019-05-21T03:53:01.367Z,60.88
2019-05-21T03:55:29.670Z,65.37
2019-05-21T03:57:57.985Z,66.85
2019-05-21T04:00:26.299Z,63.80
2019-05-21T04:02:55.024Z,61.92
2019-05-21T04:05:24.566Z,59.55
2019-05-21T04:07:53.052Z,64.55
2019-05-21T04:10:21.555Z,52.88
2019-05-21T04:13:08.876Z,56.30
2019-05-21T04:15:40.567Z,53.55
2019-05-21T04:18:10.770Z,53.47
2019-05-21T04:20:39.081Z,47.43
2019-05-21T04:23:07.637Z,55.40
2019-05-21T04:25:35.939Z,54.88
2019-05-21T04:28:04.287Z,47.43
2019-05-21T04:30:32.579Z,44.93
2019-05-21T04:33:01.154Z,58.20
2019-05-21T04:35:29.926Z,46.63
2019-05-21T04:37:58.245Z,45.43
2019-05-21T04:40:26.904Z,45.23
2019-05-21T04:42:55.219Z,41.65
2019-05-21T04:45:23.533Z,47.93
2019-05-21T04:47:52.134Z,41.58
2019-05-21T04:50:20.455Z,54.27
2019-05-21T04:52:48.784Z,48.03
2019-05-21T04:55:17.102Z,53.50
2019-05-21T04:57:45.411Z,44.30
2019-05-21T05:00:13.849Z,46.42
2019-05-21T05:02:42.181Z,46.20
2019-05-21T05:05:10.737Z,44.73
2019-05-21T05:07:39.378Z,48.95
2019-05-21T05:10:07.981Z,54.50
2019-05-21T05:12:36.645Z,45.52
2019-05-21T05:15:06.611Z,45.20
2019-05-21T05:17:34.952Z,46.18
2019-05-21T05:20:03.903Z,46.13
2019-05-21T05:22:32.219Z,41.30
2019-05-21T05:25:00.546Z,50.23
2019-05-21T05:27:28.878Z,43.70
2019-05-21T05:29:57.193Z,39.78
2019-05-21T05:32:25.768Z,40.10
2019-05-21T05:34:54.069Z,38.02
2019-05-21T05:37:24.399Z,39.25
2019-05-21T05:39:52.696Z,34.23
2019-05-21T05:42:21.020Z,32.28
2019-05-21T05:44:49.339Z,30.50
2019-05-21T05:47:17.647Z,32.50
2019-05-21T05:49:47.622Z,31.12
2019-05-21T05:52:16.214Z,31.30
2019-05-21T05:54:44.532Z,31.57
2019-05-21T05:57:12.837Z,30.02
2019-05-21T05:59:41.170Z,33.00
2019-05-21T06:02:09.576Z,31.25
2019-05-21T06:04:37.896Z,30.15
2019-05-21T06:07:06.509Z,29.90
2019-05-21T06:09:34.854Z,33.28
2019-05-21T06:12:03.305Z,33.85
2019-05-21T06:14:31.654Z,29.67
2019-05-21T06:17:00.043Z,24.43
2019-05-21T06:19:28.350Z,29.63
2019-05-21T06:21:56.675Z,32.60
2019-05-21T06:24:24.976Z,31.50
2019-05-21T06:26:53.315Z,26.73
2019-05-21T06:29:21.603Z,32.35
2019-05-21T06:31:49.930Z,31.73
2019-05-21T06:34:18.236Z,25.88
2019-05-21T06:36:46.850Z,26.33
2019-05-21T06:39:15.243Z,24.98
2019-05-21T06:41:43.552Z,23.07
2019-05-21T06:44:11.884Z,22.85
2019-05-21T06:46:40.206Z,25.68
2019-05-21T06:49:08.830Z,25.80
2019-05-21T06:51:37.144Z,20.20
2019-05-21T06:54:05.546Z,21.50
2019-05-21T06:56:34.001Z,20.30
2019-05-21T06:59:03.812Z,20.50
2019-05-21T07:01:32.153Z,21.30
2019-05-21T07:04:00.537Z,21.03
2019-05-21T07:06:28.916Z,19.63
2019-05-21T07:08:57.829Z,17.70
2019-05-21T07:11:26.166Z,19.23
2019-05-21T07:13:54.553Z,18.98
2019-05-21T07:16:22.891Z,17.25
2019-05-21T07:18:51.245Z,18.48
2019-05-21T07:21:19.521Z,18.87
2019-05-21T07:23:47.851Z,19.98
2019-05-21T07:26:16.471Z,18.65
2019-05-21T07:28:44.793Z,17.60
2019-05-21T07:31:17.238Z,18.80
2019-05-21T07:33:43.119Z,19.42
2019-05-21T07:36:11.521Z,18.75
2019-05-21T07:38:52.691Z,18.82
2019-05-21T07:41:10.228Z,17.98
2019-05-21T07:43:38.564Z,17.80
2019-05-21T07:46:06.870Z,18.80
2019-05-21T07:48:35.200Z,18.62
2019-05-21T07:51:03.512Z,18.57
2019-05-21T07:53:31.983Z,17.83
2019-05-21T07:56:00.407Z,17.87
2019-05-21T07:58:28.740Z,18.62
2019-05-21T08:01:00.997Z,20.02
2019-05-21T08:03:27.096Z,24.35
2019-05-21T08:05:55.682Z,21.55
2019-05-21T08:08:23.995Z,20.70
2019-05-21T08:10:52.331Z,19.15
2019-05-21T08:13:20.668Z,20.73
2019-05-21T08:15:48.997Z,19.30
2019-05-21T08:18:17.309Z,20.57
2019-05-21T08:20:45.585Z,21.47
2019-05-21T08:23:13.926Z,21.90
2019-05-21T08:25:42.238Z,20.27
2019-05-21T08:28:10.784Z,20.57
2019-05-21T08:30:39.104Z,20.80
2019-05-21T08:33:07.828Z,19.07
2019-05-21T08:35:36.509Z,21.25
2019-05-21T08:38:06.719Z,21.33
2019-05-21T08:40:35.403Z,20.55
2019-05-21T08:43:03.713Z,20.20
2019-05-21T08:45:32.355Z,19.45
2019-05-21T08:48:00.688Z,18.10
2019-05-21T08:50:28.993Z,19.27
2019-05-21T08:52:57.320Z,16.95
2019-05-21T08:55:25.735Z,18.50
2019-05-21T08:58:06.365Z,18.90
2019-05-21T09:00:26.253Z,17.95
2019-05-21T09:02:54.590Z,17.92
2019-05-21T09:05:23.186Z,17.70
2019-05-21T09:07:53.770Z,17.35
2019-05-21T09:10:21.714Z,17.32
2019-05-21T09:12:50.051Z,15.93
2019-05-21T09:15:19.160Z,15.60
2019-05-21T09:17:47.735Z,17.65
2019-05-21T09:20:16.787Z,16.85
2019-05-21T09:22:45.155Z,16.70
2019-05-21T09:25:13.682Z,14.40
2019-05-21T09:27:42.011Z,18.45
2019-05-21T09:30:11.385Z,14.18
2019-05-21T09:32:39.689Z,15.72
2019-05-21T09:35:09.413Z,15.08
2019-05-21T09:37:38.085Z,16.73
2019-05-21T09:40:07.569Z,17.15
2019-05-21T09:42:35.872Z,14.40
2019-05-21T09:45:06.404Z,16.12
2019-05-21T09:47:34.986Z,16.55
2019-05-21T09:50:05.602Z,15.70
2019-05-21T09:52:33.989Z,17.10
2019-05-21T09:55:02.652Z,15.13
2019-05-21T09:57:35.686Z,16.60
2019-05-21T10:00:16.305Z,19.90
2019-05-21T10:02:44.641Z,22.00
2019-05-21T10:05:13.174Z,17.67
2019-05-21T10:07:41.594Z,16.12
2019-05-21T10:10:10.521Z,18.50
2019-05-21T10:12:38.840Z,18.02
2019-05-21T10:15:07.815Z,17.20
2019-05-21T10:17:36.119Z,17.77
2019-05-21T10:20:05.989Z,18.23
2019-05-21T10:22:34.300Z,17.27
2019-05-21T10:25:02.630Z,19.32
2019-05-21T10:27:31.019Z,16.75
2019-05-21T10:29:59.703Z,16.90
2019-05-21T10:32:28.106Z,18.33
2019-05-21T10:34:56.421Z,18.07
2019-05-21T10:37:25.053Z,18.37
2019-05-21T10:39:53.649Z,19.65
2019-05-21T10:42:21.955Z,17.42
2019-05-21T10:44:50.314Z,17.02
2019-05-21T10:47:18.643Z,17.15
2019-05-21T10:49:47.235Z,18.65
2019-05-21T10:52:15.551Z,18.55
2019-05-21T10:54:43.856Z,18.95
2019-05-21T10:57:12.188Z,20.08
2019-05-21T10:59:40.485Z,17.93
2019-05-21T11:02:13.153Z,23.35
2019-05-21T11:04:49.034Z,20.23
2019-05-21T11:07:18.238Z,21.27
2019-05-21T11:09:46.560Z,23.12
2019-05-21T11:12:14.974Z,20.92
2019-05-21T11:14:43.292Z,24.40
2019-05-21T11:17:12.883Z,22.42
2019-05-21T11:19:41.263Z,20.87
2019-05-21T11:22:09.580Z,21.87
2019-05-21T11:24:38.012Z,22.37
2019-05-21T11:27:06.503Z,23.35
2019-05-21T11:29:34.808Z,22.62
2019-05-21T11:32:03.139Z,23.30
2019-05-21T11:34:31.464Z,28.92
2019-05-21T11:36:59.790Z,27.37
2019-05-21T11:39:28.086Z,31.45
2019-05-21T11:41:56.413Z,30.52
2019-05-21T11:44:24.738Z,36.13
2019-05-21T11:46:53.297Z,30.17
2019-05-21T11:49:21.608Z,29.82
2019-05-21T11:51:49.936Z,29.95
2019-05-21T11:54:18.502Z,30.55
2019-05-21T11:56:47.117Z,39.75
2019-05-21T11:59:15.790Z,30.95
2019-05-21T12:01:44.611Z,29.13
2019-05-21T12:04:12.875Z,28.80
2019-05-21T12:06:41.181Z,27.58
2019-05-21T12:09:09.508Z,25.17
2019-05-21T12:11:37.968Z,34.40
2019-05-21T12:14:06.294Z,27.87
2019-05-21T12:16:35.167Z,24.15
2019-05-21T12:19:07.578Z,26.33
2019-05-21T12:21:33.833Z,27.45
2019-05-21T12:24:02.641Z,26.02
2019-05-21T12:26:31.202Z,28.07
2019-05-21T12:28:59.773Z,27.65
2019-05-21T12:31:28.121Z,25.62
2019-05-21T12:33:56.474Z,25.90
2019-05-21T12:36:24.896Z,28.10
2019-05-21T12:38:53.182Z,25.82
2019-05-21T12:41:21.532Z,25.72
2019-05-21T12:43:49.844Z,27.98
2019-05-21T12:46:18.159Z,26.35
2019-05-21T12:48:46.476Z,29.23
2019-05-21T12:51:15.096Z,27.62
2019-05-21T12:53:43.779Z,29.80
2019-05-21T12:56:12.093Z,27.05
2019-05-21T12:58:40.426Z,26.68
2019-05-21T13:01:08.753Z,27.70
2019-05-21T13:03:37.061Z,25.70
2019-05-21T13:06:05.459Z,27.58
2019-05-21T13:08:33.877Z,26.73
2019-05-21T13:11:02.181Z,28.25
2019-05-21T13:13:30.554Z,25.55
2019-05-21T13:15:58.891Z,26.60
2019-05-21T13:18:27.198Z,29.30
2019-05-21T13:20:55.518Z,27.22
2019-05-21T13:23:23.831Z,27.58
2019-05-21T13:25:52.166Z,26.33
2019-05-21T13:28:20.784Z,31.15
2019-05-21T13:30:49.193Z,25.45
2019-05-21T13:33:19.580Z,28.30
2019-05-21T13:35:47.566Z,25.80
2019-05-21T13:38:15.904Z,25.12
2019-05-21T13:40:44.373Z,24.75
2019-05-21T13:43:12.829Z,25.27
2019-05-21T13:45:41.175Z,24.18
2019-05-21T13:48:09.754Z,23.05
2019-05-21T13:50:38.080Z,30.15
2019-05-21T13:53:06.665Z,23.90
2019-05-21T13:55:35.511Z,23.83
2019-05-21T13:58:04.010Z,23.80
2019-05-21T14:00:33.982Z,24.15
2019-05-21T14:03:02.818Z,23.80
2019-05-21T14:05:31.207Z,25.57
2019-05-21T14:07:59.531Z,23.65
2019-05-21T14:10:28.115Z,25.08
2019-05-21T14:12:56.432Z,24.30
2019-05-21T14:15:24.742Z,23.20
2019-05-21T14:17:53.368Z,22.42
2019-05-21T14:20:21.792Z,23.27
2019-05-21T14:22:50.159Z,23.25
2019-05-21T14:25:18.475Z,22.17
2019-05-21T14:27:46.810Z,23.25
2019-05-21T14:30:15.563Z,21.20
2019-05-21T14:32:43.894Z,25.08
2019-05-21T14:35:12.205Z,25.27
2019-05-21T14:37:40.528Z,23.33
2019-05-21T14:40:10.363Z,27.30
2019-05-21T14:42:39.029Z,24.27
2019-05-21T14:45:08.544Z,21.25
2019-05-21T14:47:37.205Z,25.87
2019-05-21T14:50:07.145Z,21.73
2019-05-21T14:52:35.467Z,23.80
2019-05-21T14:55:05.625Z,22.42
2019-05-21T14:57:34.590Z,21.50
2019-05-21T15:00:05.382Z,19.65
2019-05-21T15:02:37.031Z,22.40
2019-05-21T15:05:05.589Z,19.80
2019-05-21T15:07:34.268Z,20.15
2019-05-21T15:10:02.869Z,21.50
2019-05-21T15:12:31.256Z,22.13
2019-05-21T15:14:59.590Z,20.10
2019-05-21T15:17:28.005Z,22.80
2019-05-21T15:19:57.969Z,21.87
2019-05-21T15:22:26.280Z,30.40
2019-05-21T15:24:54.847Z,37.00
2019-05-21T15:27:23.550Z,38.33
2019-05-21T15:29:51.898Z,37.73
2019-05-21T15:32:20.190Z,35.80
2019-05-21T15:34:48.527Z,44.87
2019-05-21T15:37:16.877Z,49.37
2019-05-21T15:39:45.178Z,57.40
2019-05-21T15:42:13.543Z,61.73
2019-05-21T15:44:41.837Z,62.43
2019-05-21T15:47:10.165Z,62.87
2019-05-21T15:49:38.471Z,60.43
2019-05-21T15:52:06.820Z,60.60
2019-05-21T15:54:35.129Z,52.53
2019-05-21T15:57:03.456Z,52.25
2019-05-21T15:59:31.764Z,50.17
2019-05-21T16:02:00.095Z,44.08
2019-05-21T16:04:28.442Z,44.15
2019-05-21T16:06:56.769Z,41.58
2019-05-21T16:09:25.470Z,36.13
2019-05-21T16:11:54.151Z,40.70
2019-05-21T16:14:22.476Z,49.18
2019-05-21T16:16:50.790Z,39.20
2019-05-21T16:19:19.117Z,38.53
2019-05-21T16:21:47.765Z,36.95
2019-05-21T16:24:16.090Z,34.10
2019-05-21T16:26:44.396Z,33.55
2019-05-21T16:29:12.835Z,33.30
2019-05-21T16:31:41.147Z,30.72
2019-05-21T16:34:09.768Z,37.03
2019-05-21T16:36:38.073Z,39.20
2019-05-21T16:39:07.811Z,40.45
2019-05-21T16:41:44.703Z,42.48
2019-05-21T16:44:06.131Z,39.80
2019-05-21T16:46:34.834Z,36.70
2019-05-21T16:49:03.312Z,42.70
2019-05-21T16:51:32.000Z,41.60
2019-05-21T16:54:00.311Z,36.73
2019-05-21T16:56:28.645Z,37.85
2019-05-21T16:58:56.937Z,32.83
2019-05-21T17:01:25.512Z,31.97
2019-05-21T17:03:59.979Z,29.13
2019-05-21T17:06:23.961Z,31.12
2019-05-21T17:08:52.282Z,28.40
2019-05-21T17:11:20.596Z,30.27
2019-05-21T17:13:49.159Z,31.00
2019-05-21T17:16:17.450Z,31.27
2019-05-21T17:18:45.794Z,31.63
2019-05-21T17:21:14.390Z,32.70
2019-05-21T17:23:43.094Z,38.02
2019-05-21T17:26:11.469Z,35.98
2019-05-21T17:28:40.135Z,36.75
2019-05-21T17:31:08.536Z,28.38
2019-05-21T17:33:36.852Z,29.50
2019-05-21T17:36:05.179Z,26.75
2019-05-21T17:38:33.874Z,27.45
2019-05-21T17:41:02.208Z,30.20
2019-05-21T17:43:30.761Z,26.77
2019-05-21T17:45:59.087Z,24.90
2019-05-21T17:48:27.418Z,28.30
2019-05-21T17:50:55.777Z,26.05
2019-05-21T17:53:24.056Z,28.65
2019-05-21T17:55:52.379Z,25.45
2019-05-21T17:58:20.967Z,32.03
2019-05-21T18:00:54.402Z,26.30
2019-05-21T18:03:23.065Z,27.37
2019-05-21T18:05:52.587Z,27.73
2019-05-21T18:08:21.670Z,23.73
2019-05-21T18:10:50.225Z,26.20
2019-05-21T18:13:19.519Z,24.47
2019-05-21T18:15:47.992Z,24.82
2019-05-21T18:18:16.321Z,22.87
2019-05-21T18:20:45.113Z,28.70
2019-05-21T18:23:13.489Z,24.18
2019-05-21T18:25:41.933Z,34.20
2019-05-21T18:28:10.236Z,39.80
2019-05-21T18:30:38.718Z,37.85
2019-05-21T18:33:07.081Z,27.95
2019-05-21T18:35:35.573Z,31.57
2019-05-21T18:38:03.882Z,27.33
2019-05-21T18:40:32.537Z,26.90
2019-05-21T18:43:01.127Z,26.17
2019-05-21T18:45:29.453Z,37.53
2019-05-21T18:47:57.808Z,26.42
2019-05-21T18:50:35.822Z,32.03
2019-05-21T18:52:56.274Z,24.00
2019-05-21T18:55:24.664Z,23.73
2019-05-21T18:57:53.235Z,23.42
2019-05-21T19:00:21.815Z,22.93
2019-05-21T19:02:50.146Z,24.75
2019-05-21T19:05:18.518Z,23.83
2019-05-21T19:07:47.160Z,23.92
2019-05-21T19:10:15.677Z,25.68
2019-05-21T19:12:44.008Z,20.77
2019-05-21T19:15:13.118Z,25.12
2019-05-21T19:17:41.480Z,27.05
2019-05-21T19:20:10.507Z,33.30
2019-05-21T19:22:38.870Z,37.13
2019-05-21T19:25:08.336Z,28.38
2019-05-21T19:27:37.056Z,28.93
2019-05-21T19:30:06.622Z,28.38
2019-05-21T19:32:35.008Z,29.87
2019-05-21T19:35:04.258Z,29.18
2019-05-21T19:38:07.847Z,28.83
2019-05-21T19:40:59.280Z,27.50
2019-05-21T19:43:30.450Z,35.77
2019-05-21T19:45:59.921Z,41.10
2019-05-21T19:48:29.142Z,34.37
2019-05-21T19:51:00.345Z,23.90
2019-05-21T19:53:29.384Z,24.70
2019-05-21T19:55:58.243Z,27.35
2019-05-21T19:58:27.114Z,23.38
2019-05-21T20:00:56.060Z,27.80
2019-05-21T20:03:25.302Z,23.42
2019-05-21T20:05:55.165Z,28.38
2019-05-21T20:08:24.748Z,28.47
2019-05-21T20:10:53.793Z,30.17
2019-05-21T20:13:32.235Z,28.20
2019-05-21T20:15:54.809Z,29.37
2019-05-21T20:18:24.090Z,30.90
2019-05-21T20:20:53.560Z,27.55
2019-05-21T20:23:24.150Z,28.87
2019-05-21T20:25:56.600Z,27.25
2019-05-21T20:28:24.541Z,28.47
2019-05-21T20:30:54.007Z,28.98
2019-05-21T20:33:24.520Z,30.90
2019-05-21T20:35:55.623Z,28.07
2019-05-21T20:38:25.370Z,27.75
2019-05-21T20:40:55.201Z,24.65
2019-05-21T20:43:24.539Z,28.73
2019-05-21T20:45:54.499Z,25.67
2019-05-21T20:48:26.271Z,26.77
2019-05-21T20:50:55.538Z,21.85
2019-05-21T20:53:24.441Z,27.98
2019-05-21T20:55:53.658Z,24.77
2019-05-21T20:58:23.653Z,26.68
2019-05-21T21:00:56.798Z,23.62
2019-05-21T21:03:25.763Z,33.85
2019-05-21T21:05:54.907Z,30.93
2019-05-21T21:08:27.533Z,30.52
2019-05-21T21:10:55.069Z,32.88
2019-05-21T21:13:24.094Z,32.78
2019-05-21T21:15:53.376Z,30.85
2019-05-21T21:18:22.414Z,34.03
2019-05-21T21:20:51.292Z,26.95
2019-05-21T21:23:22.744Z,31.00
2019-05-21T21:25:52.124Z,25.68
2019-05-21T21:28:21.242Z,29.67
2019-05-21T21:30:50.503Z,29.92
2019-05-21T21:33:19.466Z,28.50
2019-05-21T21:35:48.599Z,27.32
2019-05-21T21:38:21.264Z,33.57
2019-05-21T21:40:50.254Z,27.65
2019-05-21T21:43:19.100Z,28.95
2019-05-21T21:45:48.454Z,34.50
2019-05-21T21:48:17.814Z,33.45
2019-05-21T21:50:46.803Z,35.83
2019-05-21T21:53:16.036Z,38.17
2019-05-21T21:55:44.930Z,36.23
2019-05-21T21:58:13.846Z,35.95
2019-05-21T22:01:31.166Z,31.80
2019-05-21T22:04:02.184Z,34.27
2019-05-21T22:06:32.248Z,37.28
2019-05-21T22:09:03.148Z,34.90
2019-05-21T22:11:32.164Z,35.60
2019-05-21T22:14:02.397Z,36.08
2019-05-21T22:16:31.575Z,37.70
2019-05-21T22:19:00.556Z,36.30
2019-05-21T22:21:29.406Z,36.30
2019-05-21T22:23:59.364Z,38.27
2019-05-21T22:26:29.308Z,42.83
2019-05-21T22:28:58.173Z,38.25
2019-05-21T22:31:27.018Z,35.07
2019-05-21T22:33:55.873Z,41.80
2019-05-21T22:36:24.744Z,34.88
2019-05-21T22:38:53.625Z,38.88
2019-05-21T22:41:22.537Z,41.10
2019-05-21T22:43:52.238Z,37.73
2019-05-21T22:46:21.273Z,36.85
2019-05-21T22:48:50.328Z,37.75
2019-05-21T22:51:19.228Z,38.33
2019-05-21T22:53:48.220Z,39.90
2019-05-21T22:56:17.388Z,41.10
2019-05-21T22:58:46.286Z,38.28
2019-05-21T23:01:16.198Z,35.03
2019-05-21T23:03:45.774Z,36.30
2019-05-21T23:06:14.751Z,38.30
2019-05-21T23:08:43.619Z,36.70
2019-05-21T23:11:12.790Z,35.75
2019-05-21T23:13:41.752Z,40.83
2019-05-21T23:16:11.530Z,40.30
2019-05-21T23:18:40.689Z,37.42
2019-05-21T23:21:11.128Z,40.23
2019-05-21T23:23:41.378Z,35.50
2019-05-21T23:26:10.354Z,38.13
2019-05-21T23:28:39.902Z,41.20
2019-05-21T23:31:09.639Z,38.70
2019-05-21T23:33:38.702Z,37.58
2019-05-21T23:36:08.401Z,38.10
2019-05-21T23:38:38.261Z,38.08
2019-05-21T23:41:08.791Z,38.30
2019-05-21T23:43:38.268Z,39.67
2019-05-21T23:46:07.429Z,37.05
2019-05-21T23:48:36.249Z,34.70
2019-05-21T23:51:05.102Z,40.12
2019-05-21T23:53:34.985Z,39.23
2019-05-21T23:56:04.065Z,37.10
2019-05-21T23:58:33.653Z,39.83
